Time;durP1;ratioP1;P1;durP2;ratioP2;P2;SDS_P1;SDS_P2;PMS_P1;PMS_P2;Temp;Humidity;BMP_temperature;BMP_pressure;BME280_temperature;BME280_humidity;BME280_pressure;Samples;Min_cycle;Max_cycle;Signal;HPM_P1;HPM_P2
2023/08/11 06:58:21;;;;;;;11.10;5.33;;;20.60;62.40;;;;;;5295916;23;20520;-62
2023/08/11 07:00:48;;;;;;;11.63;5.13;;;20.50;64.70;;;;;;5031043;28;20452;-62
2023/08/11 07:03:15;;;;;;;15.23;5.13;;;20.40;65.60;;;;;;5032261;28;20925;-62
2023/08/11 07:05:42;;;;;;;13.03;5.50;;;20.30;70.30;;;;;;5032456;28;20932;-62
2023/08/11 07:08:08;;;;;;;12.50;5.90;;;20.40;70.50;;;;;;5032581;28;20459;-62
2023/08/11 07:10:36;;;;;;;13.07;5.10;;;20.20;70.20;;;;;;5032995;28;20453;-62
2023/08/11 07:13:04;;;;;;;9.50;4.57;;;20.20;70.20;;;;;;5033001;28;20477;-62
2023/08/11 07:15:32;;;;;;;14.57;5.20;;;20.20;70.30;;;;;;5032601;28;20896;-63
2023/08/11 07:17:59;;;;;;;9.80;4.90;;;20.20;62.20;;;;;;5033158;28;20962;-63
2023/08/11 07:20:25;;;;;;;11.63;4.60;;;20.30;70.30;;;;;;5032936;28;20547;-63
2023/08/11 07:22:52;;;;;;;14.20;5.40;;;20.30;67.80;;;;;;5032147;28;20453;-62
2023/08/11 07:25:19;;;;;;;9.73;4.83;;;20.30;67.50;;;;;;5033265;28;20970;-63
2023/08/11 07:27:46;;;;;;;10.65;4.90;;;20.40;62.30;;;;;;5033029;28;20455;-61
2023/08/11 07:30:13;;;;;;;10.63;4.60;;;20.40;62.20;;;;;;5032641;28;20241;-62
2023/08/11 07:32:41;;;;;;;10.53;5.07;;;20.50;62.30;;;;;;5031854;28;20462;-62
2023/08/11 07:35:09;;;;;;;11.27;4.90;;;20.60;63.20;;;;;;5032963;28;20480;-62
2023/08/11 07:37:35;;;;;;;8.17;4.57;;;20.70;62.50;;;;;;5033473;28;20453;-62
2023/08/11 07:40:04;;;;;;;9.23;4.80;;;20.80;63.40;;;;;;5031737;28;20539;-62
2023/08/11 07:42:31;;;;;;;13.50;5.10;;;20.90;62.70;;;;;;5032746;28;20484;-63
2023/08/11 07:44:57;;;;;;;8.87;4.30;;;21.10;63.70;;;;;;5032572;28;20488;-62
2023/08/11 07:47:24;;;;;;;8.50;4.77;;;21.20;62.90;;;;;;5033154;28;20459;-62
2023/08/11 07:49:53;;;;;;;8.40;4.50;;;21.30;58.80;;;;;;5032820;28;20448;-62
2023/08/11 07:52:20;;;;;;;12.70;4.80;;;21.40;57.90;;;;;;5033139;28;20453;-62
2023/08/11 07:54:47;;;;;;;12.90;4.30;;;21.50;55.70;;;;;;5033100;28;20520;-61
2023/08/11 07:57:14;;;;;;;10.60;4.33;;;21.60;54.70;;;;;;5033098;28;20936;-62
2023/08/11 07:59:41;;;;;;;8.53;4.13;;;21.80;55.00;;;;;;5032887;28;20543;-62
2023/08/11 08:02:08;;;;;;;7.70;4.20;;;22.00;55.10;;;;;;5032370;28;20452;-62
2023/08/11 08:04:35;;;;;;;7.80;4.00;;;22.20;55.30;;;;;;5032990;28;20511;-62
2023/08/11 08:07:03;;;;;;;7.87;4.20;;;22.40;55.50;;;;;;5033186;28;20984;-62
2023/08/11 08:09:33;;;;;;;8.30;3.90;;;22.80;51.60;;;;;;5032952;28;20460;-62
2023/08/11 08:12:01;;;;;;;9.53;4.10;;;23.30;47.60;;;;;;5032559;28;20453;-63
2023/08/11 08:14:28;;;;;;;11.30;6.90;;;23.80;44.70;;;;;;5032214;28;20482;-62
2023/08/11 08:16:56;;;;;;;8.80;3.30;;;24.50;44.10;;;;;;5032534;28;20884;-62
2023/08/11 08:19:23;;;;;;;9.33;3.80;;;25.00;39.90;;;;;;5032887;28;20544;-62
2023/08/11 08:21:50;;;;;;;12.50;4.30;;;25.30;38.70;;;;;;5032414;28;20828;-63
2023/08/11 08:24:19;;;;;;;8.07;4.43;;;25.70;31.10;;;;;;5031839;28;20536;-63
2023/08/11 08:26:47;;;;;;;14.00;4.20;;;26.20;24.70;;;;;;5032447;28;20492;-63
2023/08/11 08:29:14;;;;;;;8.87;3.87;;;26.40;24.10;;;;;;5032317;28;20866;-63
2023/08/11 08:31:41;;;;;;;8.30;3.73;;;26.70;24.30;;;;;;5032283;28;20449;-63
2023/08/11 08:34:08;;;;;;;8.30;4.27;;;26.90;20.60;;;;;;5032643;28;20528;-62
2023/08/11 08:36:35;;;;;;;8.50;3.63;;;27.40;17.10;;;;;;5032309;28;20521;-63
2023/08/11 08:39:03;;;;;;;6.83;3.77;;;27.70;14.00;;;;;;5032463;28;20538;-62
2023/08/11 08:41:32;;;;;;;10.03;4.80;;;27.80;13.90;;;;;;5031964;28;20455;-63
2023/08/11 08:44:01;;;;;;;7.07;3.60;;;27.90;9.70;;;;;;5032132;28;20806;-62
2023/08/11 08:46:29;;;;;;;9.10;3.73;;;28.20;9.90;;;;;;5032498;28;20494;-63
2023/08/11 08:49:08;;;;;;;11.10;4.40;;;28.40;10.00;;;;;;5032150;28;20463;-63
2023/08/11 08:51:37;;;;;;;10.03;4.13;;;28.50;8.40;;;;;;5031860;28;20459;-63
2023/08/11 08:54:04;;;;;;;9.73;4.00;;;28.60;4.00;;;;;;5032285;28;20511;-63
2023/08/11 08:56:33;;;;;;;7.70;3.50;;;28.70;6.10;;;;;;5031903;28;20444;-63
2023/08/11 08:59:00;;;;;;;9.17;3.33;;;29.10;2.50;;;;;;5031962;28;20506;-63
2023/08/11 09:01:27;;;;;;;9.17;3.00;;;29.50;2.80;;;;;;5031700;28;20449;-63
2023/08/11 09:03:54;;;;;;;8.25;4.00;;;29.60;2.80;;;;;;5030704;28;20424;-63
2023/08/11 09:06:23;;;;;;;9.80;3.87;;;30.00;1.00;;;;;;5031055;28;20202;-63
2023/08/11 09:08:50;;;;;;;9.90;3.70;;;29.90;1.00;;;;;;5032223;28;20822;-63
2023/08/11 09:11:17;;;;;;;14.93;4.23;;;30.10;1.00;;;;;;5030053;28;20890;-63
2023/08/11 09:13:49;;;;;;;9.83;3.60;;;30.30;1.00;;;;;;5031148;28;20994;-63
2023/08/11 09:16:16;;;;;;;7.70;3.73;;;30.30;1.00;;;;;;5031878;28;20509;-63
2023/08/11 09:18:44;;;;;;;8.50;2.80;;;30.40;1.00;;;;;;5031546;28;20453;-63
2023/08/11 09:21:12;;;;;;;10.37;2.87;;;31.10;1.00;;;;;;5031450;28;20502;-62
2023/08/11 09:23:39;;;;;;;7.80;3.00;;;31.10;1.00;;;;;;5030921;28;20548;-63
2023/08/11 09:26:06;;;;;;;6.00;2.63;;;31.40;1.00;;;;;;5031186;28;20427;-63
2023/08/11 09:28:37;;;;;;;7.47;3.07;;;31.40;1.00;;;;;;5031116;28;20823;-64
2023/08/11 09:31:07;;;;;;;10.37;3.27;;;31.40;1.00;;;;;;5031216;28;20487;-64
2023/08/11 09:33:34;;;;;;;6.13;2.10;;;31.40;1.00;;;;;;5030840;28;21068;-63
2023/08/11 09:36:01;;;;;;;6.20;2.93;;;31.90;1.00;;;;;;5032019;28;20540;-64
2023/08/11 09:38:29;;;;;;;7.60;3.13;;;31.90;1.00;;;;;;5033902;28;20814;-64
2023/08/11 09:41:01;;;;;;;7.17;3.20;;;32.00;1.00;;;;;;5035353;28;20423;-63
2023/08/11 09:43:28;;;;;;;7.50;3.17;;;31.90;1.00;;;;;;5035224;28;20427;-63
2023/08/11 09:45:54;;;;;;;6.90;2.97;;;32.10;1.00;;;;;;5035893;28;20431;-64
2023/08/11 09:48:24;;;;;;;7.20;3.30;;;32.10;1.00;;;;;;5035873;28;20423;-63
2023/08/11 09:50:52;;;;;;;9.97;3.33;;;32.00;1.00;;;;;;5035866;28;20879;-63
2023/08/11 09:53:22;;;;;;;10.40;3.00;;;31.90;1.00;;;;;;5035246;28;20484;-64
2023/08/11 09:55:50;;;;;;;6.43;2.57;;;32.30;1.00;;;;;;5035908;28;20484;-64
2023/08/11 09:58:18;;;;;;;7.67;2.83;;;32.30;1.00;;;;;;5035788;28;20460;-63
2023/08/11 10:00:48;;;;;;;7.60;3.40;;;32.40;1.00;;;;;;5035639;28;20510;-63
2023/08/11 10:03:22;;;;;;;9.40;3.50;;;32.90;1.00;;;;;;5035447;28;20448;-63
2023/08/11 10:05:53;;;;;;;8.87;3.20;;;33.80;1.00;;;;;;5035661;28;20850;-63
2023/08/11 10:08:21;;;;;;;12.87;2.90;;;33.90;1.00;;;;;;5035293;28;20426;-63
2023/08/11 10:10:48;;;;;;;6.80;3.00;;;33.60;1.00;;;;;;5035341;28;20451;-64
2023/08/11 10:13:17;;;;;;;8.17;2.83;;;33.70;1.00;;;;;;5035250;28;20514;-62
2023/08/11 10:15:45;;;;;;;8.47;3.20;;;34.10;1.00;;;;;;5035092;28;20999;-63
2023/08/11 10:18:13;;;;;;;8.43;3.00;;;34.50;1.00;;;;;;5035177;28;20423;-62
2023/08/11 10:20:41;;;;;;;9.37;3.27;;;34.60;1.00;;;;;;5035561;28;20430;-63
2023/08/11 10:23:09;;;;;;;7.90;2.77;;;34.80;1.00;;;;;;5035221;28;20522;-63
2023/08/11 10:25:37;;;;;;;6.90;2.90;;;34.90;1.00;;;;;;5035263;28;20811;-63
2023/08/11 10:28:07;;;;;;;7.57;2.97;;;35.40;1.00;;;;;;5034918;28;20456;-64
2023/08/11 10:30:34;;;;;;;5.77;2.27;;;35.00;1.00;;;;;;5035159;28;20434;-63
2023/08/11 10:33:08;;;;;;;7.33;2.43;;;34.70;1.00;;;;;;5034940;28;20513;-63
2023/08/11 10:35:47;;;;;;;6.47;2.97;;;34.60;1.00;;;;;;5035004;28;20512;-63
2023/08/11 10:38:25;;;;;;;5.50;2.40;;;34.80;1.00;;;;;;5034976;28;20426;-63
2023/08/11 10:40:59;;;;;;;7.90;2.83;;;35.40;1.00;;;;;;5034714;28;20452;-62
2023/08/11 10:43:32;;;;;;;8.60;2.27;;;35.70;1.00;;;;;;5034995;28;20484;-64
2023/08/11 10:46:15;;;;;;;8.83;2.97;;;35.90;1.00;;;;;;5034856;28;20433;-63
2023/08/11 10:48:43;;;;;;;6.67;2.40;;;35.60;1.00;;;;;;5034305;28;20532;-63
2023/08/11 10:51:27;;;;;;;6.00;2.80;;;35.40;1.00;;;;;;5034717;28;20483;-63
2023/08/11 10:53:57;;;;;;;11.27;2.83;;;35.10;1.00;;;;;;5034514;28;20448;-65
2023/08/11 10:56:33;;;;;;;12.53;3.40;;;34.70;1.00;;;;;;5035046;28;20497;-65
2023/08/11 10:59:17;;;;;;;13.30;3.00;;;35.00;1.00;;;;;;5034625;28;20530;-65
2023/08/11 11:01:46;;;;;;;5.50;2.50;;;35.20;1.00;;;;;;5034113;28;20459;-65
2023/08/11 11:04:13;;;;;;;6.20;2.97;;;35.00;1.00;;;;;;5033908;28;20460;-65
2023/08/11 11:06:43;;;;;;;5.90;2.67;;;35.80;1.00;;;;;;5033518;28;20488;-65
2023/08/11 11:09:13;;;;;;;10.50;2.77;;;34.90;1.00;;;;;;5033417;28;20431;-64
2023/08/11 11:11:40;;;;;;;10.00;2.77;;;35.60;1.00;;;;;;5033382;28;20430;-64
2023/08/11 11:14:08;;;;;;;6.20;2.60;;;35.30;1.00;;;;;;5034147;28;20452;-65
2023/08/11 11:16:36;;;;;;;6.30;2.47;;;36.30;1.00;;;;;;5034248;28;20542;-66
2023/08/11 11:19:12;;;;;;;7.40;2.40;;;35.70;1.00;;;;;;5064427;23;20586;-68
2023/08/11 11:21:40;;;;;;;8.73;3.30;;;35.10;1.00;;;;;;5035592;28;20422;-68
2023/08/11 11:24:08;;;;;;;8.70;2.83;;;35.70;1.00;;;;;;5035832;28;20813;-67
2023/08/11 11:26:37;;;;;;;6.53;2.80;;;35.90;1.00;;;;;;5035789;28;20502;-68
2023/08/11 11:29:05;;;;;;;7.60;2.63;;;35.80;1.00;;;;;;5035321;28;20430;-68
2023/08/11 11:31:34;;;;;;;9.50;2.70;;;35.80;1.00;;;;;;5035696;28;20421;-68
2023/08/11 11:34:02;;;;;;;7.07;2.90;;;35.30;1.00;;;;;;5035332;28;20423;-68
2023/08/11 11:36:30;;;;;;;6.70;2.47;;;35.60;1.00;;;;;;5035592;28;20846;-68
2023/08/11 11:38:57;;;;;;;9.47;2.70;;;35.90;1.00;;;;;;5034841;28;20782;-68
2023/08/11 11:41:24;;;;;;;8.63;3.00;;;36.50;1.00;;;;;;5035499;28;20853;-68
2023/08/11 11:43:52;;;;;;;6.47;2.77;;;37.20;1.00;;;;;;5035487;28;20782;-68
2023/08/11 11:46:21;;;;;;;6.63;3.10;;;36.90;1.00;;;;;;5035139;28;20483;-68
2023/08/11 11:48:50;;;;;;;24.63;3.43;;;37.00;1.00;;;;;;5035094;28;20449;-68
2023/08/11 11:51:18;;;;;;;6.60;2.60;;;37.30;1.00;;;;;;5035338;28;20452;-69
2023/08/11 11:53:45;;;;;;;9.23;2.73;;;37.10;1.00;;;;;;5034967;28;20981;-69
2023/08/11 11:56:15;;;;;;;5.80;2.80;;;36.60;1.00;;;;;;5034839;28;21045;-69
2023/08/11 11:58:43;;;;;;;6.73;2.57;;;36.80;1.00;;;;;;5033964;28;20509;-68
2023/08/11 12:01:14;;;;;;;9.20;2.97;;;37.60;1.00;;;;;;5035072;28;20480;-69
2023/08/11 12:03:42;;;;;;;11.33;2.70;;;38.10;1.00;;;;;;5034829;28;20895;-69
2023/08/11 12:06:09;;;;;;;6.97;2.33;;;38.60;1.00;;;;;;5035041;28;20516;-69
2023/08/11 12:08:37;;;;;;;7.43;2.80;;;37.80;1.00;;;;;;5034143;28;20515;-70
2023/08/11 12:11:05;;;;;;;6.43;2.87;;;37.60;1.00;;;;;;5034600;28;20957;-69
2023/08/11 12:13:32;;;;;;;9.23;2.00;;;37.80;1.00;;;;;;5034925;28;20991;-69
2023/08/11 12:16:00;;;;;;;7.10;2.60;;;37.30;1.00;;;;;;5034992;28;20479;-69
2023/08/11 12:18:29;;;;;;;6.20;3.10;;;37.50;1.00;;;;;;5034277;28;20994;-70
2023/08/11 12:20:58;;;;;;;7.87;2.50;;;37.50;1.00;;;;;;5034812;28;20442;-68
2023/08/11 12:23:25;;;;;;;7.07;2.80;;;37.50;1.00;;;;;;5034710;28;20429;-68
2023/08/11 12:25:53;;;;;;;6.73;3.23;;;37.70;1.00;;;;;;5034677;28;20510;-68
2023/08/11 12:28:20;;;;;;;8.80;3.00;;;37.50;1.00;;;;;;5034311;28;20459;-68
2023/08/11 12:30:47;;;;;;;9.03;3.17;;;37.70;1.00;;;;;;5034288;28;20544;-68
2023/08/11 12:33:15;;;;;;;6.33;2.83;;;38.10;1.00;;;;;;5034552;28;20547;-68
2023/08/11 12:35:43;;;;;;;10.07;3.40;;;37.50;1.00;;;;;;5034161;28;20468;-68
2023/08/11 12:38:12;;;;;;;6.93;2.60;;;37.60;1.00;;;;;;5033823;28;20539;-69
2023/08/11 12:40:40;;;;;;;5.87;2.70;;;38.00;1.00;;;;;;5034376;28;20800;-69
2023/08/11 12:43:07;;;;;;;6.83;3.23;;;37.60;1.00;;;;;;5034393;28;20452;-69
2023/08/11 12:45:34;;;;;;;7.60;3.30;;;37.50;1.00;;;;;;5034343;28;20995;-69
2023/08/11 12:48:01;;;;;;;6.50;2.97;;;37.50;1.00;;;;;;5033739;28;20447;-68
2023/08/11 12:50:29;;;;;;;6.77;2.83;;;37.80;1.00;;;;;;5034158;28;20427;-69
2023/08/11 12:52:58;;;;;;;8.23;3.10;;;38.90;1.00;;;;;;5034413;28;20448;-68
2023/08/11 12:55:25;;;;;;;9.80;2.93;;;39.70;1.00;;;;;;5034105;28;20478;-69
2023/08/11 12:57:52;;;;;;;7.00;2.73;;;39.30;1.00;;;;;;5033569;28;20941;-69
2023/08/11 13:00:20;;;;;;;8.43;3.27;;;38.50;1.00;;;;;;5033861;28;20452;-69
2023/08/11 13:02:47;;;;;;;6.37;2.77;;;37.40;1.00;;;;;;5034016;28;20453;-69
2023/08/11 13:05:15;;;;;;;7.80;2.70;;;37.10;1.00;;;;;;5034231;28;20480;-69
2023/08/11 13:07:42;;;;;;;6.30;2.80;;;37.60;1.00;;;;;;5034002;28;20459;-69
2023/08/11 13:10:11;;;;;;;7.30;3.27;;;37.50;1.00;;;;;;5033015;28;20544;-69
2023/08/11 13:12:38;;;;;;;11.20;4.03;;;37.60;1.00;;;;;;5033848;28;20952;-68
2023/08/11 13:15:06;;;;;;;6.47;2.90;;;37.90;1.00;;;;;;5033837;28;20450;-69
2023/08/11 13:17:33;;;;;;;7.27;2.90;;;37.40;1.00;;;;;;5033891;28;20539;-69
2023/08/11 13:20:03;;;;;;;8.03;2.83;;;36.90;1.00;;;;;;5032892;28;20465;-71
2023/08/11 13:22:30;;;;;;;7.20;2.90;;;36.50;1.00;;;;;;5033512;28;20403;-70
2023/08/11 13:24:57;;;;;;;5.73;2.80;;;36.60;1.00;;;;;;5033427;28;20578;-69
2023/08/11 13:27:25;;;;;;;8.70;2.93;;;37.20;1.00;;;;;;5033435;28;20428;-70
2023/08/11 13:29:52;;;;;;;11.27;3.10;;;38.00;1.00;;;;;;5033650;28;20514;-69
2023/08/11 13:32:19;;;;;;;7.63;3.40;;;38.00;1.00;;;;;;5033694;28;20499;-69
2023/08/11 13:34:46;;;;;;;8.00;2.70;;;37.90;1.00;;;;;;5033561;28;20423;-69
2023/08/11 13:37:13;;;;;;;6.27;3.10;;;38.00;1.00;;;;;;5033630;28;20463;-69
2023/08/11 13:39:39;;;;;;;8.40;3.33;;;37.90;1.00;;;;;;5033017;28;20506;-69
2023/08/11 13:42:09;;;;;;;7.97;2.90;;;38.00;1.00;;;;;;5033262;28;20427;-69
2023/08/11 13:44:37;;;;;;;8.83;2.83;;;37.50;1.00;;;;;;5033255;28;21002;-69
2023/08/11 13:47:04;;;;;;;6.27;3.23;;;37.70;1.00;;;;;;5033245;28;20415;-69
2023/08/11 13:49:31;;;;;;;7.50;2.90;;;37.80;1.00;;;;;;5032920;28;20966;-69
2023/08/11 13:51:58;;;;;;;8.10;3.10;;;37.70;1.00;;;;;;5033168;28;20511;-68
2023/08/11 13:54:25;;;;;;;9.77;3.33;;;37.40;1.00;;;;;;5033150;28;20518;-69
2023/08/11 13:56:52;;;;;;;10.60;3.50;;;36.80;1.00;;;;;;5033387;28;20481;-69
2023/08/11 13:59:19;;;;;;;7.63;2.87;;;37.00;1.00;;;;;;5032752;28;20423;-69
2023/08/11 14:01:47;;;;;;;8.30;3.10;;;36.80;1.00;;;;;;5033300;28;20506;-69
2023/08/11 14:04:14;;;;;;;8.37;2.80;;;36.80;1.00;;;;;;5033058;28;20427;-68
2023/08/11 14:06:41;;;;;;;9.93;4.10;;;36.60;1.00;;;;;;5033032;28;20462;-69
2023/08/11 14:09:08;;;;;;;7.87;3.03;;;36.30;1.00;;;;;;5033038;28;20431;-69
2023/08/11 14:11:37;;;;;;;6.37;2.60;;;35.90;1.00;;;;;;5033327;28;20849;-69
2023/08/11 14:14:04;;;;;;;7.00;2.87;;;36.00;1.00;;;;;;5033323;28;20562;-69
2023/08/11 14:16:31;;;;;;;7.87;4.00;;;35.30;1.00;;;;;;5033222;28;20807;-69
2023/08/11 14:18:59;;;;;;;7.27;3.30;;;35.60;1.00;;;;;;5033203;28;20470;-69
2023/08/11 14:21:26;;;;;;;6.03;3.13;;;36.00;1.00;;;;;;5033809;28;20442;-69
2023/08/11 14:23:54;;;;;;;8.93;3.23;;;36.40;1.00;;;;;;5036480;28;20510;-70
2023/08/11 14:26:21;;;;;;;8.17;3.63;;;36.70;1.00;;;;;;5036597;28;20507;-69
2023/08/11 14:28:48;;;;;;;8.90;2.90;;;35.90;1.00;;;;;;5036472;28;20511;-69
2023/08/11 14:31:15;;;;;;;7.70;2.70;;;35.60;1.00;;;;;;5036827;28;20808;-69
2023/08/11 14:33:42;;;;;;;7.40;3.00;;;35.20;1.00;;;;;;5036769;28;20853;-69
2023/08/11 14:36:10;;;;;;;5.67;2.77;;;35.40;1.00;;;;;;5036655;28;20526;-71
2023/08/11 14:38:37;;;;;;;10.47;3.37;;;35.40;1.00;;;;;;5036419;28;20535;-69
2023/08/11 14:41:04;;;;;;;7.87;3.43;;;35.40;1.00;;;;;;5036344;28;20453;-69
2023/08/11 14:43:31;;;;;;;10.07;3.40;;;35.30;1.00;;;;;;5036244;28;20515;-69
2023/08/11 14:45:58;;;;;;;6.63;3.00;;;35.40;1.00;;;;;;5036518;28;20448;-69
2023/08/11 14:48:25;;;;;;;7.00;3.17;;;35.60;1.00;;;;;;5036013;28;20458;-69
2023/08/11 14:50:52;;;;;;;9.03;3.20;;;36.00;1.00;;;;;;5036398;28;20479;-69
2023/08/11 14:53:23;;;;;;;12.37;3.90;;;35.80;1.00;;;;;;5036634;28;20459;-69
2023/08/11 14:55:50;;;;;;;6.40;3.20;;;35.70;1.00;;;;;;5036320;28;20440;-69
2023/08/11 14:58:18;;;;;;;6.93;2.97;;;35.90;1.00;;;;;;5035318;28;20510;-69
2023/08/11 15:00:45;;;;;;;6.00;3.27;;;36.30;1.00;;;;;;5035848;28;20495;-69
2023/08/11 15:03:12;;;;;;;9.93;3.63;;;36.10;1.00;;;;;;5035924;28;20535;-69
2023/08/11 15:05:39;;;;;;;5.83;3.00;;;36.50;1.00;;;;;;5036158;28;20419;-69
2023/08/11 15:08:06;;;;;;;7.27;3.97;;;36.40;1.00;;;;;;5035710;28;20562;-69
2023/08/11 15:10:34;;;;;;;8.60;2.90;;;36.60;1.00;;;;;;5035961;28;20510;-69
2023/08/11 15:13:03;;;;;;;6.47;3.70;;;36.70;1.00;;;;;;5035732;28;20510;-69
2023/08/11 15:15:30;;;;;;;8.00;3.10;;;36.50;1.00;;;;;;5035964;28;20427;-70
2023/08/11 15:17:57;;;;;;;8.20;2.70;;;37.40;1.00;;;;;;5035561;28;20999;-69
2023/08/11 15:20:24;;;;;;;7.70;3.30;;;37.30;1.00;;;;;;5035988;28;20457;-68
2023/08/11 15:22:50;;;;;;;9.60;3.43;;;37.20;1.00;;;;;;5035951;28;20535;-69
2023/08/11 15:25:18;;;;;;;10.33;4.60;;;38.30;1.00;;;;;;5035527;28;20445;-69
2023/08/11 15:27:46;;;;;;;8.23;3.47;;;38.10;1.00;;;;;;5035716;28;20871;-69
2023/08/11 15:30:14;;;;;;;6.93;3.63;;;37.70;1.00;;;;;;5035150;28;20419;-69
2023/08/11 15:32:41;;;;;;;8.30;3.13;;;37.50;1.00;;;;;;5035312;28;20488;-69
2023/08/11 15:35:09;;;;;;;10.63;3.57;;;37.00;1.00;;;;;;5047743;28;20853;-69
2023/08/11 15:37:36;;;;;;;6.23;3.50;;;36.70;1.00;;;;;;5075169;28;20483;-69
2023/08/11 15:40:04;;;;;;;8.77;3.50;;;36.70;1.00;;;;;;5056886;28;20919;-69
2023/08/11 15:42:31;;;;;;;8.70;4.00;;;36.50;1.00;;;;;;5055539;28;20943;-68
2023/08/11 15:44:59;;;;;;;19.00;3.13;;;36.10;1.00;;;;;;5055416;28;20454;-70
2023/08/11 15:47:26;;;;;;;17.77;4.23;;;36.10;1.00;;;;;;5055350;28;20852;-70
2023/08/11 15:49:53;;;;;;;8.30;4.17;;;36.50;1.00;;;;;;5054965;28;20516;-72
2023/08/11 15:52:19;;;;;;;7.07;2.83;;;36.40;1.00;;;;;;5054923;28;20469;-72
2023/08/11 15:54:46;;;;;;;9.60;3.30;;;37.20;1.00;;;;;;5054843;28;20428;-72
2023/08/11 15:57:13;;;;;;;9.43;2.70;;;37.20;1.00;;;;;;5054787;28;21081;-72
2023/08/11 15:59:40;;;;;;;7.07;3.00;;;37.10;1.00;;;;;;5066621;28;20572;-73
2023/08/11 16:02:08;;;;;;;7.93;3.30;;;37.10;1.00;;;;;;5075036;28;20422;-72
2023/08/11 16:04:35;;;;;;;7.30;3.37;;;36.40;1.00;;;;;;5074903;28;20513;-72
2023/08/11 16:07:02;;;;;;;11.50;3.37;;;35.90;1.00;;;;;;5074932;28;20827;-70
2023/08/11 16:09:29;;;;;;;11.23;3.50;;;36.00;1.00;;;;;;5073967;28;20512;-69
2023/08/11 16:11:56;;;;;;;6.80;2.80;;;36.30;1.00;;;;;;5074498;28;20489;-70
2023/08/11 16:14:24;;;;;;;8.10;3.63;;;35.80;1.00;;;;;;5074710;28;20495;-70
2023/08/11 16:16:52;;;;;;;16.27;3.63;;;35.60;1.00;;;;;;5074395;28;20456;-69
2023/08/11 16:19:21;;;;;;;7.10;2.63;;;36.00;1.00;;;;;;5073715;28;20468;-70
2023/08/11 16:21:48;;;;;;;6.90;2.80;;;36.10;1.00;;;;;;5074451;28;21004;-71
2023/08/11 16:24:15;;;;;;;5.90;2.80;;;36.00;1.00;;;;;;5074421;28;20457;-69
2023/08/11 16:26:42;;;;;;;10.80;3.50;;;36.40;1.00;;;;;;5074482;28;20526;-69
2023/08/11 16:29:09;;;;;;;7.13;3.00;;;36.40;1.00;;;;;;5073880;28;20871;-69
2023/08/11 16:31:35;;;;;;;7.03;3.30;;;36.40;1.00;;;;;;5074105;28;20451;-69
2023/08/11 16:34:03;;;;;;;6.17;2.87;;;36.10;1.00;;;;;;5074770;28;20513;-70
2023/08/11 16:36:31;;;;;;;9.23;3.00;;;36.50;1.00;;;;;;5073910;28;20528;-70
2023/08/11 16:38:58;;;;;;;6.10;2.50;;;36.70;1.00;;;;;;5073841;28;20446;-70
2023/08/11 16:41:25;;;;;;;6.07;2.70;;;36.60;1.00;;;;;;5074183;28;20482;-70
2023/08/11 16:43:52;;;;;;;11.67;3.97;;;36.50;1.00;;;;;;5073847;28;20461;-70
2023/08/11 16:46:22;;;;;;;7.23;3.07;;;36.60;1.00;;;;;;5073669;28;20834;-69
2023/08/11 16:48:49;;;;;;;10.47;3.40;;;36.40;1.00;;;;;;5073459;28;20433;-70
2023/08/11 16:51:16;;;;;;;7.20;2.90;;;36.30;1.00;;;;;;5074898;28;20533;-70
2023/08/11 16:53:45;;;;;;;8.77;3.43;;;36.80;1.00;;;;;;5073893;28;20427;-69
2023/08/11 16:56:12;;;;;;;11.90;3.43;;;37.30;1.00;;;;;;5073947;28;20558;-70
2023/08/11 16:58:39;;;;;;;8.00;3.20;;;37.60;1.00;;;;;;5073451;28;20797;-69
2023/08/11 17:01:06;;;;;;;6.47;2.90;;;38.00;1.00;;;;;;5073958;28;20428;-69
2023/08/11 17:03:33;;;;;;;7.87;3.27;;;37.20;1.00;;;;;;5073950;28;20444;-69
2023/08/11 17:05:59;;;;;;;8.83;2.83;;;36.60;1.00;;;;;;5073861;28;20600;-69
2023/08/11 17:08:26;;;;;;;9.77;3.20;;;37.30;1.00;;;;;;5073381;28;20508;-69
2023/08/11 17:10:54;;;;;;;7.17;2.73;;;37.10;1.00;;;;;;5073721;28;20446;-69
2023/08/11 17:13:21;;;;;;;12.30;3.27;;;35.70;1.00;;;;;;5073858;28;20447;-70
2023/08/11 17:15:48;;;;;;;11.27;3.37;;;35.00;1.00;;;;;;5073765;28;20457;-71
2023/08/11 17:18:15;;;;;;;6.60;2.97;;;33.90;1.00;;;;;;5071559;28;20831;-71
2023/08/11 17:20:42;;;;;;;8.00;3.27;;;33.70;1.00;;;;;;5053737;28;20502;-71
2023/08/11 17:23:09;;;;;;;8.63;3.53;;;33.00;1.00;;;;;;5053670;28;20813;-69
2023/08/11 17:25:36;;;;;;;7.07;2.90;;;32.20;1.00;;;;;;5053778;28;20479;-69
2023/08/11 17:28:06;;;;;;;10.67;3.50;;;31.50;1.00;;;;;;5053349;28;20551;-71
2023/08/11 17:30:32;;;;;;;7.90;3.27;;;31.00;1.00;;;;;;5053490;28;20495;-72
2023/08/11 17:33:00;;;;;;;7.73;3.53;;;30.30;1.00;;;;;;5053637;28;20941;-71
2023/08/11 17:35:26;;;;;;;12.50;3.30;;;29.90;1.00;;;;;;5053604;28;20546;-72
2023/08/11 17:37:53;;;;;;;8.23;3.00;;;29.50;1.00;;;;;;5053418;28;20876;-72
2023/08/11 17:40:20;;;;;;;7.87;3.17;;;29.10;1.00;;;;;;5053338;28;20455;-72
2023/08/11 17:42:47;;;;;;;8.47;2.90;;;28.60;1.00;;;;;;5053208;28;20534;-72
2023/08/11 17:45:15;;;;;;;8.00;3.50;;;28.30;1.00;;;;;;5053408;28;20452;-71
2023/08/11 17:47:46;;;;;;;7.33;3.67;;;28.00;1.00;;;;;;5053452;28;20511;-71
2023/08/11 17:50:13;;;;;;;8.40;3.47;;;27.70;1.00;;;;;;5052913;28;20896;-72
2023/08/11 17:52:40;;;;;;;8.87;3.87;;;27.50;1.00;;;;;;5053425;28;20492;-71
2023/08/11 17:55:07;;;;;;;11.03;3.90;;;27.40;1.00;;;;;;5053369;28;20447;-72
2023/08/11 17:57:35;;;;;;;12.27;3.80;;;27.30;1.00;;;;;;5054934;28;20518;-71
2023/08/11 18:00:03;;;;;;;9.50;3.50;;;27.10;1.00;;;;;;5056846;28;20422;-71
2023/08/11 18:02:32;;;;;;;8.70;3.80;;;27.00;1.00;;;;;;5057010;28;20917;-71
2023/08/11 18:04:59;;;;;;;7.67;3.07;;;27.00;1.00;;;;;;5057280;28;20497;-71
2023/08/11 18:07:26;;;;;;;19.87;4.30;;;27.00;1.00;;;;;;5057167;28;20487;-72
2023/08/11 18:09:53;;;;;;;21.50;3.63;;;27.00;1.00;;;;;;5056541;28;20483;-71
2023/08/11 18:12:21;;;;;;;12.73;4.17;;;26.90;1.00;;;;;;5057151;28;20483;-72
2023/08/11 18:14:55;;;;;;;11.83;3.70;;;26.80;1.00;;;;;;5057107;28;20801;-73
2023/08/11 18:17:23;;;;;;;20.93;4.87;;;26.70;1.00;;;;;;5057000;28;20450;-72
2023/08/11 18:19:52;;;;;;;14.53;4.43;;;26.60;1.00;;;;;;5056334;28;20495;-72
2023/08/11 18:22:19;;;;;;;17.13;4.97;;;26.50;1.00;;;;;;5056976;28;20479;-71
2023/08/11 18:24:46;;;;;;;16.00;4.13;;;26.40;1.00;;;;;;5056904;28;20539;-72
2023/08/11 18:27:13;;;;;;;21.57;5.10;;;26.20;1.00;;;;;;5056578;28;20531;-71
2023/08/11 18:29:40;;;;;;;22.43;4.70;;;26.00;1.00;;;;;;5056231;28;20530;-71
2023/08/11 18:32:07;;;;;;;36.17;5.50;;;25.80;1.40;;;;;;5056799;28;20538;-71
2023/08/11 18:34:34;;;;;;;18.23;4.73;;;25.60;1.00;;;;;;5056771;28;20456;-71
2023/08/11 18:37:02;;;;;;;15.13;4.20;;;25.40;8.30;;;;;;5056692;28;20866;-71
2023/08/11 18:39:29;;;;;;;36.63;5.00;;;25.20;12.00;;;;;;5056274;28;20509;-71
2023/08/11 18:41:56;;;;;;;26.50;5.10;;;25.00;16.50;;;;;;5056344;28;20428;-71
2023/08/11 18:44:24;;;;;;;31.00;6.47;;;24.90;15.70;;;;;;5056604;28;20479;-72
2023/08/11 18:46:51;;;;;;;34.50;5.70;;;24.70;20.10;;;;;;5056561;28;20611;-71
2023/08/11 18:49:18;;;;;;;33.80;6.43;;;24.60;23.00;;;;;;5055654;28;20459;-71
2023/08/11 18:51:45;;;;;;;46.63;6.60;;;24.60;23.00;;;;;;5056174;28;20454;-71
2023/08/11 18:54:13;;;;;;;46.37;5.37;;;24.50;21.40;;;;;;5056463;28;20497;-71
2023/08/11 18:56:41;;;;;;;42.03;6.07;;;24.50;21.60;;;;;;5055959;28;20452;-71
2023/08/11 18:59:10;;;;;;;22.80;6.30;;;24.40;18.70;;;;;;5055630;28;20479;-72
2023/08/11 19:01:37;;;;;;;49.70;6.73;;;24.40;15.40;;;;;;5055921;28;21013;-72
2023/08/11 19:04:05;;;;;;;43.70;8.27;;;24.30;21.40;;;;;;5056192;28;20447;-71
2023/08/11 19:06:33;;;;;;;62.33;8.83;;;24.20;22.70;;;;;;5056373;28;20534;-71
2023/08/11 19:09:01;;;;;;;112.43;14.63;;;24.10;22.70;;;;;;5055311;28;20543;-72
2023/08/11 19:11:29;;;;;;;71.67;11.07;;;24.00;22.60;;;;;;5056260;28;20488;-71
2023/08/11 19:13:56;;;;;;;59.57;9.03;;;23.90;22.50;;;;;;5055979;28;20479;-72
2023/08/11 19:16:23;;;;;;;38.90;8.10;;;23.80;23.30;;;;;;5055957;28;20498;-72
2023/08/11 19:18:50;;;;;;;69.40;8.93;;;23.70;26.00;;;;;;5055255;28;20475;-72
2023/08/11 19:21:16;;;;;;;50.60;9.50;;;23.60;27.60;;;;;;5055864;28;20535;-71
2023/08/11 19:23:43;;;;;;;65.37;8.90;;;23.50;27.10;;;;;;5055778;28;20855;-69
2023/08/11 19:26:10;;;;;;;47.90;8.27;;;23.50;29.50;;;;;;5055546;28;20465;-70
2023/08/11 19:28:40;;;;;;;33.73;7.47;;;23.40;27.70;;;;;;5061785;28;20466;-69
2023/08/11 19:31:07;;;;;;;37.40;7.47;;;23.40;24.10;;;;;;5075302;28;20447;-69
2023/08/11 19:33:35;;;;;;;27.90;5.90;;;23.50;22.20;;;;;;5075356;28;20453;-69
2023/08/11 19:36:02;;;;;;;27.33;6.37;;;23.50;23.40;;;;;;5075553;28;20546;-70
2023/08/11 19:38:29;;;;;;;35.33;8.80;;;23.50;26.00;;;;;;5075167;28;20514;-70
2023/08/11 19:40:56;;;;;;;45.53;6.90;;;23.50;29.50;;;;;;5075426;28;20446;-70
2023/08/11 19:43:23;;;;;;;34.77;6.43;;;23.50;28.00;;;;;;5075113;28;20922;-69
2023/08/11 19:45:53;;;;;;;48.37;9.00;;;23.60;29.40;;;;;;5074993;28;20533;-69
2023/08/11 19:48:20;;;;;;;35.50;7.67;;;23.60;29.60;;;;;;5075261;28;20493;-69
2023/08/11 19:50:48;;;;;;;33.13;6.00;;;23.60;28.40;;;;;;5075177;28;20546;-69